This is the latest recevied weather packets stored in our database for station/object BV5AB-13. If no packets are shown the sender has not sent any weather packets the latest 10 day(s).
| Time | Temp. | Humidity | Pressure | Rain* | Wind** | Luminosity | Snow |
|---|---|---|---|---|---|---|---|
| 1777457224 | 25° C | 88% | 1001.2 hPa | 0 mm | - | - | - |
| 1777456623 | 25° C | 87% | 1001 hPa | 0 mm | - | - | - |
| 1777456024 | 25° C | 87% | 1000.8 hPa | 0 mm | - | - | - |
| 1777455423 | 24.44° C | 89% | 1000.6 hPa | 0 mm | - | - | - |
| 1777454824 | 24.44° C | 91% | 1000.3 hPa | 0 mm | - | - | - |
| 1777454224 | 24.44° C | 92% | 1000.1 hPa | 0 mm | - | - | - |
| 1777453623 | 24.44° C | 92% | 1000.2 hPa | 0 mm | - | - | - |
| 1777453023 | 24.44° C | 92% | 1000.3 hPa | 0 mm | - | - | - |
| 1777452423 | 24.44° C | 91% | 1000.3 hPa | 0 mm | - | - | - |
| 1777451823 | 24.44° C | 90% | 1000.3 hPa | 0 mm | - | - | - |
| 1777451223 | 24.44° C | 91% | 1000.3 hPa | 0 mm | - | - | - |
| 1777450023 | 24.44° C | 90% | 1000.3 hPa | 1.52 mm | - | - | - |
| 1777449424 | 24.44° C | 92% | 1000.4 hPa | 3.05 mm | - | - | - |
| 1777448823 | 24.44° C | 92% | 1000.4 hPa | 3.05 mm | - | - | - |
| 1777448224 | 24.44° C | 93% | 1000.5 hPa | 3.05 mm | - | - | - |
| 1777447623 | 24.44° C | 92% | 1000.5 hPa | 3.05 mm | - | - | - |
| 1777447024 | 25° C | 89% | 1000.4 hPa | 2.54 mm | - | - | - |
| 1777446424 | 25° C | 89% | 1000.4 hPa | 2.54 mm | - | - | - |
| 1777445824 | 25° C | 88% | 1000.6 hPa | 1.02 mm | - | - | - |
| 1777445225 | 25.56° C | 88% | 1000.7 hPa | 1.02 mm | - | - | - |
| 1777444624 | 25.56° C | 86% | 1000.5 hPa | 1.02 mm | - | - | - |
| 1777444024 | 27.22° C | 78% | 1000.6 hPa | 1.02 mm | - | - | - |
| 1777443423 | 28.33° C | 64% | 1000.5 hPa | 0 mm | - | - | - |
| 1777442824 | 28.89° C | 62% | 1000.3 hPa | 0 mm | - | - | - |
| 1777442224 | 28.89° C | 61% | 1000.8 hPa | 0 mm | - | - | - |
* Rain latest hour (hover to see other rain measurements)
** Current wind speed in m/s (hover to see current wind gust speed)